الصفحة الرئيسية
METAR-TAF:

METAR-TAF

مطار :

مطار مسقط الدولي

مسقط, سلطنة عمان

دائرة عرض: 23-35N, خط طول: 058-17E, ارتفاع: 8 متر

مراقبة الطقس الحالي

تاريخ ووقت الإصدار 53 دقيقة قبل الساعة 01:50UTC
ريح 6 عقدة من الجنوب الغربي
درجة الحرارة 17°درجة مئوية
الرطوبة 68%
ضغط 1020 hPa
الرؤية 10 كم أو أكثر
الغيوم لا تقل 1500 م ولا وجود لمزنة ركامية السحاب الأسود

METAR: OOMS 270150Z 23006KT CAVOK 17/11 Q1020 NOSIG

زمن: 06:43 (02:43 UTC)

توقعات

تاريخ ووقت الإصدار 3ساعات و 43 دقيقة قبل الساعة 23:00UTC
التوقعات صالحة من27 الساعة 00 UTC إلى 28 الساعة 06 UTC
ريح 5 عقدة من الغرب/الجنوب الغربي
الرؤية: 8000 متر
مؤقت
من 27 الساعة 02 UTC إلى 27 الساعة 10 UTC
غيوم مفككة على ارتفاع 2000 قدم
أصبح
من 27 الساعة 06 UTC إلى 27 الساعة 08 UTC
ريح 18 عقدة من الشرق
أصبح
من 27 الساعة 16 UTC إلى 27 الساعة 18 UTC
ريح 6 عقدة من الجنوب الشرقي
نظرية الاحتمالات 30% :
مؤقت
من 28 الساعة 00 UTC إلى 28 الساعة 06 UTC
غيوم مفككة على ارتفاع 2000 قدم

TAF: OOMS 262300Z 2700/2806 24005KT 8000 NSC TEMPO 2702/2710 BKN020 BECMG 2706/2708 08018KT BECMG 2716/2718 13006KT PROB30 TEMPO 2800/2806 BKN020

أرصاد الطقس والتوقعات من أكثر من 4000 مطار (تقارير الطقس للمطار METAR والتنبؤ بالطقس بالمطارTAF).

المحطات المتاحة هي النقط الصفراء والحمراء على الخريطة.

حرك المؤشر فوق النقطة لمعرفة اسم المحطة.

ثم انقر لمعرفة أرصاد وتوقعات الطقس.

لتغيير الخارطة: اضغط على الأزرار الخضراء مع رمز الصليب الأسود للتكبير. على الزر الأخضر مع شرطة للتصغير، أو على الأسهم الخضراء للخرائط المجاورة.


METAR-TAF: